Time;durP1;ratioP1;P1;durP2;ratioP2;P2;SDS_P1;SDS_P2;PMS_P1;PMS_P2;Temp;Humidity;BMP_temperature;BMP_pressure;BME280_temperature;BME280_humidity;BME280_pressure;Samples;Min_cycle;Max_cycle;Signal;HPM_P1;HPM_P2
2021/01/05 00:02:17;;;;;;;0.17;0.10;;;3.40;89.50;;;;;;5054819;28;20038;-90
2021/01/05 00:04:45;;;;;;;1.97;0.83;;;3.40;89.50;;;;;;5018694;28;20049;-90
2021/01/05 00:07:11;;;;;;;4.10;0.87;;;3.40;89.50;;;;;;5027818;28;20052;-90
2021/01/05 00:09:38;;;;;;;1.03;0.30;;;3.40;89.50;;;;;;5003621;28;20037;-91
2021/01/05 00:12:07;;;;;;;0.10;0.10;;;3.40;89.50;;;;;;5038091;28;20029;-86
2021/01/05 00:14:33;;;;;;;0.53;0.33;;;3.40;89.50;;;;;;5020180;28;20041;-90
2021/01/05 00:17:00;;;;;;;1.13;0.40;;;3.30;89.50;;;;;;5036255;28;20036;-91
2021/01/05 00:19:26;;;;;;;0.20;0.20;;;3.30;89.60;;;;;;5037829;28;20045;-90
2021/01/05 00:21:53;;;;;;;1.20;0.60;;;3.40;89.60;;;;;;5042368;28;20029;-90
2021/01/05 00:24:19;;;;;;;0.67;0.33;;;3.40;89.60;;;;;;5044084;28;20048;-90
2021/01/05 00:26:46;;;;;;;2.00;0.60;;;3.40;89.50;;;;;;5038179;28;20041;-91
2021/01/05 00:29:12;;;;;;;2.33;0.77;;;3.40;89.50;;;;;;5037878;28;20033;-90
2021/01/05 00:31:39;;;;;;;0.60;0.37;;;3.50;89.50;;;;;;5037416;28;20037;-88
2021/01/05 00:34:05;;;;;;;1.17;0.30;;;3.40;89.50;;;;;;5037847;28;20036;-90
2021/01/05 00:36:32;;;;;;;0.63;0.30;;;3.40;89.50;;;;;;5037069;28;20416;-90
2021/01/05 00:38:58;;;;;;;6.03;0.23;;;3.40;89.50;;;;;;5037593;28;20505;-89
2021/01/05 00:41:24;;;;;;;1.73;0.93;;;3.40;89.50;;;;;;5039171;28;20052;-89
2021/01/05 00:50:36;;;;;;;7.13;0.50;;;3.40;89.50;;;;;;5057089;28;20434;-86
2021/01/05 00:53:02;;;;;;;1.03;0.57;;;3.50;89.50;;;;;;5023162;28;20091;-86
2021/01/05 00:55:28;;;;;;;1.07;0.37;;;3.50;89.50;;;;;;5020023;28;20050;-88
2021/01/05 00:57:55;;;;;;;2.27;0.83;;;3.50;89.40;;;;;;5037338;28;20034;-89
2021/01/05 01:00:26;;;;;;;3.40;1.77;;;3.50;89.40;;;;;;5035501;28;20052;-90
2021/01/05 01:02:53;;;;;;;4.25;2.13;;;3.50;89.50;;;;;;5036774;28;20049;-90
2021/01/05 01:05:19;;;;;;;4.23;2.13;;;3.50;89.50;;;;;;5030208;28;20104;-86
2021/01/05 01:07:46;;;;;;;9.83;3.00;;;3.40;89.50;;;;;;5030848;28;20030;-89
2021/01/05 01:10:13;;;;;;;9.90;2.70;;;3.40;89.60;;;;;;5021121;28;20348;-90
2021/01/05 01:12:39;;;;;;;3.17;1.67;;;3.50;89.60;;;;;;5037586;28;20049;-91
2021/01/05 01:15:06;;;;;;;3.57;1.03;;;3.50;89.50;;;;;;5011057;28;20049;-88
2021/01/05 01:17:32;;;;;;;1.40;1.00;;;3.50;89.50;;;;;;5037545;28;20026;-90
2021/01/05 01:19:59;;;;;;;1.93;1.20;;;3.60;89.50;;;;;;5016219;28;20053;-86
2021/01/05 01:22:25;;;;;;;0.10;0.10;;;3.60;89.40;;;;;;5019745;28;20041;-90
2021/01/05 01:24:52;;;;;;;1.47;0.70;;;3.50;89.40;;;;;;5020992;28;20034;-91
2021/01/05 01:27:19;;;;;;;5.20;1.03;;;3.50;89.40;;;;;;5021286;28;20041;-90
2021/01/05 01:29:45;;;;;;;2.57;0.27;;;3.50;89.40;;;;;;5023626;28;20037;-89
2021/01/05 01:32:11;;;;;;;2.90;1.07;;;3.50;89.40;;;;;;5036066;28;20336;-87
2021/01/05 01:34:38;;;;;;;0.63;0.47;;;3.60;89.40;;;;;;5035988;28;20030;-90
2021/01/05 01:37:12;;;;;;;1.23;0.23;;;3.60;89.40;;;;;;5020205;28;20133;-91
2021/01/05 01:39:40;;;;;;;2.53;0.73;;;3.50;89.40;;;;;;5020948;28;20049;-91
2021/01/05 01:42:07;;;;;;;1.13;0.67;;;3.50;89.40;;;;;;5019938;28;20021;-89
2021/01/05 01:44:35;;;;;;;0.83;0.43;;;3.50;89.40;;;;;;5019985;28;20040;-89
2021/01/05 01:47:06;;;;;;;0.93;0.33;;;3.50;89.40;;;;;;5019784;28;20313;-91
2021/01/05 01:49:33;;;;;;;1.02;0.95;;;3.60;89.50;;;;;;5033068;28;20092;-91
2021/01/05 01:51:59;;;;;;;9.00;1.00;;;3.50;89.40;;;;;;5015579;28;20038;-86
2021/01/05 01:54:55;;;;;;;1.43;0.73;;;3.50;89.40;;;;;;5016204;28;20025;-89
2021/01/05 01:57:44;;;;;;;2.30;0.50;;;3.60;89.40;;;;;;5018041;28;20038;-88
2021/01/05 02:00:52;;;;;;;0.00;0.00;;;3.60;89.40;;;;;;5000005;28;20045;-89
2021/01/05 02:03:29;;;;;;;2.83;0.87;;;3.60;89.30;;;;;;5018296;28;20026;-89
2021/01/05 02:06:13;;;;;;;0.10;0.10;;;3.60;89.30;;;;;;5001012;28;20045;-90
2021/01/05 02:08:55;;;;;;;0.93;0.73;;;3.60;89.20;;;;;;5008073;28;20045;-89
2021/01/05 02:11:40;;;;;;;0.23;0.23;;;3.60;89.20;;;;;;5031992;28;20034;-90
2021/01/05 02:14:18;;;;;;;0.70;0.20;;;3.60;89.20;;;;;;5036693;28;20029;-87
2021/01/05 02:17:10;;;;;;;1.33;0.77;;;3.60;89.20;;;;;;5036862;28;20047;-90
2021/01/05 02:19:53;;;;;;;0.00;0.00;;;3.60;89.20;;;;;;5027121;28;20337;-90
2021/01/05 02:22:38;;;;;;;1.57;0.50;;;3.60;89.20;;;;;;5012995;28;20041;-91
2021/01/05 02:25:32;;;;;;;0.10;0.10;;;3.60;89.10;;;;;;5026067;28;20032;-90
2021/01/05 02:28:01;;;;;;;0.30;0.10;;;3.60;89.10;;;;;;5036429;28;20033;-91
2021/01/05 02:30:35;;;;;;;1.73;0.60;;;3.60;89.10;;;;;;5032232;28;20515;-86
2021/01/05 02:33:26;;;;;;;0.07;0.07;;;3.60;89.00;;;;;;5015508;28;20041;-90
2021/01/05 02:36:17;;;;;;;3.33;0.32;;;3.60;89.10;;;;;;5031587;28;20049;-91
2021/01/05 02:38:50;;;;;;;0.05;0.00;;;3.60;89.10;;;;;;5037723;28;20022;-91
2021/01/05 02:41:39;;;;;;;0.00;0.00;;;3.60;89.10;;;;;;5036142;28;20325;-92
2021/01/05 02:44:22;;;;;;;0.47;0.23;;;3.60;89.10;;;;;;5022017;28;20018;-90
2021/01/05 02:46:52;;;;;;;0.20;0.20;;;3.60;89.10;;;;;;5014802;28;20030;-88
2021/01/05 02:49:39;;;;;;;1.35;0.45;;;3.60;89.20;;;;;;5018846;28;20041;-91
2021/01/05 02:52:45;;;;;;;1.03;0.73;;;3.60;89.20;;;;;;5035143;28;20419;-89
2021/01/05 02:55:33;;;;;;;0.57;0.47;;;3.60;89.20;;;;;;5028074;28;20040;-90
2021/01/05 02:58:31;;;;;;;1.33;0.20;;;3.60;89.20;;;;;;5029526;28;20171;-89
2021/01/05 03:01:34;;;;;;;0.70;0.23;;;3.60;89.20;;;;;;5052700;28;20029;-91
2021/01/05 03:04:01;;;;;;;0.07;0.07;;;3.60;89.20;;;;;;5061481;28;20032;-87
2021/01/05 03:06:33;;;;;;;0.27;0.23;;;3.60;89.20;;;;;;5029381;28;20029;-90
2021/01/05 03:09:34;;;;;;;0.20;0.20;;;3.60;89.20;;;;;;5077906;28;20044;-90
2021/01/05 03:12:06;;;;;;;0.30;0.30;;;3.60;89.20;;;;;;5026826;28;20033;-92
2021/01/05 03:14:38;;;;;;;0.20;0.10;;;3.60;89.20;;;;;;5043842;28;20036;-90
2021/01/05 03:17:10;;;;;;;1.30;0.30;;;3.60;89.20;;;;;;5042559;28;20052;-90
2021/01/05 03:20:15;;;;;;;0.00;0.00;;;3.60;89.20;;;;;;5042038;28;20025;-88
2021/01/05 03:22:56;;;;;;;1.17;0.30;;;3.60;89.20;;;;;;5050312;28;20028;-86
2021/01/05 03:25:23;;;;;;;0.50;0.25;;;3.60;89.20;;;;;;5059860;28;20036;-86
2021/01/05 03:27:51;;;;;;;0.30;0.20;;;3.60;89.20;;;;;;5059026;28;20025;-91
2021/01/05 03:30:37;;;;;;;1.70;0.10;;;3.60;89.20;;;;;;5038810;28;20041;-90
2021/01/05 03:33:04;;;;;;;0.40;0.20;;;3.60;89.20;;;;;;5038260;28;20060;-91
2021/01/05 03:35:30;;;;;;;1.60;0.57;;;3.60;89.20;;;;;;5056693;28;20033;-91
2021/01/05 03:37:57;;;;;;;1.17;0.67;;;3.60;89.20;;;;;;5027020;28;20041;-92
2021/01/05 03:40:24;;;;;;;3.53;0.53;;;3.60;89.20;;;;;;5020567;28;20041;-91
2021/01/05 03:42:53;;;;;;;2.33;0.40;;;3.60;89.20;;;;;;5033364;28;20029;-88
2021/01/05 03:45:30;;;;;;;2.33;1.03;;;3.60;89.20;;;;;;5037148;28;20666;-90
2021/01/05 03:47:56;;;;;;;0.53;0.13;;;3.60;89.20;;;;;;5026240;28;20037;-91
2021/01/05 03:50:23;;;;;;;3.30;0.40;;;3.60;89.20;;;;;;5034923;28;20033;-91
2021/01/05 03:52:50;;;;;;;0.00;0.00;;;3.60;89.20;;;;;;5021501;28;20033;-90
2021/01/05 03:55:16;;;;;;;0.57;0.30;;;3.60;89.20;;;;;;5037197;28;20052;-89
2021/01/05 03:57:43;;;;;;;2.03;1.13;;;3.60;89.20;;;;;;5037627;28;20025;-89
2021/01/05 04:00:32;;;;;;;2.93;0.60;;;3.60;89.20;;;;;;5037807;28;20036;-89
2021/01/05 04:02:59;;;;;;;1.70;1.03;;;3.60;89.20;;;;;;5041594;28;20029;-91
2021/01/05 04:05:26;;;;;;;2.93;0.83;;;3.60;89.20;;;;;;5038274;28;20336;-91
2021/01/05 04:07:52;;;;;;;0.07;0.00;;;3.60;89.20;;;;;;5038704;28;20312;-91
2021/01/05 04:10:19;;;;;;;3.20;0.60;;;3.60;89.20;;;;;;5039506;28;20051;-89
2021/01/05 04:12:45;;;;;;;0.63;0.57;;;3.60;89.20;;;;;;5022219;28;20049;-90
2021/01/05 04:15:22;;;;;;;2.23;0.50;;;3.60;89.20;;;;;;5037909;28;20510;-92
2021/01/05 04:17:49;;;;;;;1.33;0.43;;;3.60;89.20;;;;;;5042399;28;20029;-88
2021/01/05 04:20:16;;;;;;;0.30;0.13;;;3.60;89.20;;;;;;5032514;28;20045;-88
2021/01/05 04:22:42;;;;;;;1.60;0.87;;;3.60;89.20;;;;;;5040924;28;20029;-90
2021/01/05 04:25:09;;;;;;;0.93;0.30;;;3.60;89.20;;;;;;5040892;28;20029;-87
2021/01/05 04:27:35;;;;;;;0.27;0.10;;;3.60;89.20;;;;;;5040175;28;20037;-88
2021/01/05 04:30:04;;;;;;;2.70;0.60;;;3.60;89.20;;;;;;5042404;28;20029;-89
2021/01/05 04:32:30;;;;;;;1.33;0.40;;;3.60;89.20;;;;;;5025383;28;20037;-91
2021/01/05 04:34:56;;;;;;;0.50;0.30;;;3.60;89.20;;;;;;5042337;28;20028;-90
2021/01/05 04:37:22;;;;;;;1.43;0.77;;;3.70;89.20;;;;;;5042067;28;20033;-90
2021/01/05 04:39:49;;;;;;;1.70;0.63;;;3.70;89.20;;;;;;5041528;28;20289;-89
2021/01/05 04:42:25;;;;;;;0.63;0.37;;;3.60;89.20;;;;;;5039940;28;20442;-87
2021/01/05 04:45:01;;;;;;;0.10;0.03;;;3.60;89.20;;;;;;5040575;28;20032;-88
2021/01/05 04:47:44;;;;;;;0.90;0.20;;;3.60;89.10;;;;;;5039532;28;20444;-87
2021/01/05 04:50:16;;;;;;;3.70;0.40;;;3.60;89.10;;;;;;5041321;28;20048;-87
2021/01/05 04:52:57;;;;;;;0.57;0.20;;;3.70;89.20;;;;;;5040476;28;20029;-87
2021/01/05 04:55:42;;;;;;;0.32;0.15;;;3.60;89.10;;;;;;5011702;28;20037;-89
2021/01/05 04:58:40;;;;;;;1.50;0.63;;;3.60;89.10;;;;;;5022845;28;20049;-88
2021/01/05 05:01:12;;;;;;;0.57;0.30;;;3.60;89.00;;;;;;5021716;28;20058;-86
2021/01/05 05:03:41;;;;;;;;;;;3.60;89.00;;;;;;5039552;28;20036;-86
2021/01/05 05:06:13;;;;;;;0.27;0.23;;;3.60;89.00;;;;;;5048866;28;19905;-89
2021/01/05 05:09:05;;;;;;;0.40;0.30;;;3.60;89.00;;;;;;5020051;28;20036;-88
2021/01/05 05:11:39;;;;;;;0.47;0.30;;;3.60;89.00;;;;;;4994013;28;20234;-86
2021/01/05 05:14:15;;;;;;;0.47;0.30;;;3.60;89.00;;;;;;5022302;28;20048;-89
2021/01/05 05:17:02;;;;;;;0.30;0.20;;;3.60;89.00;;;;;;5038001;28;20037;-86
2021/01/05 05:19:52;;;;;;;1.70;0.53;;;3.60;88.90;;;;;;5038241;28;20025;-88
2021/01/05 05:22:48;;;;;;;1.40;0.63;;;3.60;89.00;;;;;;5022178;28;20036;-86
2021/01/05 05:25:17;;;;;;;0.07;0.07;;;3.60;88.90;;;;;;5021716;28;20033;-87
2021/01/05 05:28:04;;;;;;;1.70;0.50;;;3.60;89.00;;;;;;5035494;28;20036;-87
2021/01/05 05:30:39;;;;;;;0.30;0.17;;;3.60;88.90;;;;;;5021346;28;20037;-88
2021/01/05 05:33:18;;;;;;;1.00;0.93;;;3.60;88.90;;;;;;5038629;28;20040;-88
2021/01/05 05:36:27;;;;;;;1.17;0.30;;;3.60;88.90;;;;;;5021369;28;20404;-86
2021/01/05 05:39:23;;;;;;;1.23;0.70;;;3.50;88.90;;;;;;5037480;28;20412;-87
2021/01/05 05:42:01;;;;;;;1.37;0.30;;;3.60;88.90;;;;;;5017164;28;20340;-87
2021/01/05 05:44:44;;;;;;;0.73;0.47;;;3.60;88.90;;;;;;5056013;28;20029;-87
2021/01/05 05:47:36;;;;;;;4.27;0.97;;;3.60;88.80;;;;;;5017443;28;20048;-87
2021/01/05 05:50:22;;;;;;;1.93;0.63;;;3.60;88.80;;;;;;5035345;28;20029;-87
2021/01/05 05:53:13;;;;;;;2.43;0.77;;;3.60;88.80;;;;;;5001898;28;20571;-87
2021/01/05 05:55:47;;;;;;;;;;;3.60;88.80;;;;;;4993905;28;20052;-87
2021/01/05 05:58:28;;;;;;;1.67;0.20;;;3.60;88.80;;;;;;5034699;28;20331;-86
2021/01/05 06:00:56;;;;;;;0.38;0.38;;;3.60;88.80;;;;;;5014571;28;20034;-87
2021/01/05 06:03:23;;;;;;;0.67;0.30;;;3.60;88.80;;;;;;4998405;28;20045;-87
2021/01/05 06:05:49;;;;;;;1.27;1.10;;;3.60;88.80;;;;;;5032470;28;20036;-86
2021/01/05 06:08:17;;;;;;;1.83;0.50;;;3.60;88.80;;;;;;5035288;28;20025;-87
2021/01/05 06:10:43;;;;;;;0.30;0.30;;;3.60;88.80;;;;;;5033359;28;20021;-87
2021/01/05 06:13:10;;;;;;;1.40;0.87;;;3.60;88.80;;;;;;5014985;28;20033;-87
2021/01/05 06:15:36;;;;;;;1.77;0.30;;;3.60;88.80;;;;;;5014799;28;20042;-86
2021/01/05 06:18:08;;;;;;;2.13;1.03;;;3.60;88.80;;;;;;5034648;28;20034;-88
2021/01/05 06:20:35;;;;;;;0.93;0.63;;;3.60;88.80;;;;;;5035199;28;20022;-86
2021/01/05 06:23:01;;;;;;;0.33;0.33;;;3.60;88.80;;;;;;5018285;28;20025;-89
2021/01/05 06:25:27;;;;;;;1.20;0.43;;;3.70;88.90;;;;;;5001791;28;20333;-87
2021/01/05 06:27:54;;;;;;;1.23;0.33;;;3.70;88.80;;;;;;5034806;28;20033;-90
2021/01/05 06:30:20;;;;;;;0.57;0.47;;;3.60;88.80;;;;;;5033754;28;20042;-88
2021/01/05 06:32:47;;;;;;;2.27;0.53;;;3.60;88.80;;;;;;5015188;28;20348;-87
2021/01/05 06:35:14;;;;;;;0.80;0.50;;;3.60;88.80;;;;;;5017066;28;20037;-89
2021/01/05 06:37:40;;;;;;;1.33;0.63;;;3.60;89.60;;;;;;5034148;28;20041;-88
2021/01/05 06:40:07;;;;;;;0.93;0.30;;;3.70;88.80;;;;;;5017140;28;20036;-92
2021/01/05 06:42:35;;;;;;;2.33;0.40;;;3.70;88.80;;;;;;5019066;28;21023;-91
2021/01/05 06:45:01;;;;;;;0.80;0.40;;;3.60;88.80;;;;;;5003263;28;20044;-92
2021/01/05 06:47:28;;;;;;;1.93;0.80;;;3.60;88.80;;;;;;5019472;28;20033;-90
2021/01/05 06:49:54;;;;;;;3.67;1.17;;;3.60;88.80;;;;;;5020041;28;20104;-91
2021/01/05 06:52:20;;;;;;;0.53;0.53;;;3.60;88.70;;;;;;5020187;28;20029;-92
2021/01/05 06:54:47;;;;;;;1.13;0.57;;;3.70;88.80;;;;;;5019461;28;20037;-87
2021/01/05 06:57:13;;;;;;;0.00;0.00;;;3.70;88.70;;;;;;5021555;28;20056;-88
2021/01/05 06:59:39;;;;;;;0.63;0.30;;;3.70;88.70;;;;;;5027437;28;20044;-90
2021/01/05 07:02:06;;;;;;;0.57;0.47;;;3.70;88.70;;;;;;5043518;28;20023;-89
2021/01/05 07:04:33;;;;;;;0.47;0.37;;;3.70;88.60;;;;;;5058714;28;20044;-91
2021/01/05 07:06:59;;;;;;;1.17;0.50;;;3.70;88.60;;;;;;5045123;28;20051;-90
2021/01/05 07:09:26;;;;;;;1.07;0.63;;;3.70;88.60;;;;;;5031727;28;20025;-89
2021/01/05 07:11:52;;;;;;;2.67;0.93;;;3.70;88.60;;;;;;5035807;28;20037;-89
2021/01/05 07:14:24;;;;;;;0.10;0.10;;;3.70;88.60;;;;;;5038516;28;20028;-91
2021/01/05 07:16:50;;;;;;;;;;;3.70;88.60;;;;;;5017851;28;20033;-91
2021/01/05 07:19:16;;;;;;;2.33;0.73;;;3.70;88.50;;;;;;5036444;28;19909;-87
2021/01/05 07:21:43;;;;;;;0.93;0.30;;;3.70;88.50;;;;;;5055142;28;20028;-90
2021/01/05 07:24:10;;;;;;;5.10;0.90;;;3.70;88.50;;;;;;5043185;28;20037;-90
2021/01/05 07:26:39;;;;;;;0.67;0.43;;;3.70;88.50;;;;;;5036804;28;20037;-88
2021/01/05 07:29:06;;;;;;;2.93;0.73;;;3.70;88.50;;;;;;5019735;28;20037;-90
2021/01/05 07:31:32;;;;;;;1.80;0.37;;;3.70;88.50;;;;;;5037826;28;20044;-87
2021/01/05 07:33:59;;;;;;;3.37;1.27;;;3.70;88.50;;;;;;5056425;28;20020;-88
2021/01/05 07:36:28;;;;;;;0.40;0.40;;;3.70;88.50;;;;;;5035957;28;20455;-88
2021/01/05 07:38:54;;;;;;;0.97;0.67;;;3.70;88.50;;;;;;5035274;28;20041;-89
2021/01/05 07:41:20;;;;;;;2.87;0.50;;;3.70;88.50;;;;;;5037230;28;20036;-89
2021/01/05 07:43:47;;;;;;;0.33;0.13;;;3.70;88.50;;;;;;5037091;28;20044;-87
2021/01/05 07:46:13;;;;;;;2.10;0.60;;;3.70;88.50;;;;;;5025227;28;20048;-88
2021/01/05 07:48:40;;;;;;;0.43;0.30;;;3.70;88.50;;;;;;5020619;28;20021;-89
2021/01/05 07:51:07;;;;;;;2.10;0.87;;;3.70;88.50;;;;;;5021578;28;20029;-88
2021/01/05 07:53:33;;;;;;;0.10;0.10;;;3.70;88.50;;;;;;5011286;28;20033;-86
2021/01/05 07:56:00;;;;;;;0.00;0.00;;;3.70;88.50;;;;;;5000208;28;20034;-85
2021/01/05 07:58:26;;;;;;;2.40;0.37;;;3.70;88.50;;;;;;5028043;28;20051;-86
2021/01/05 08:00:53;;;;;;;2.03;0.97;;;3.70;88.50;;;;;;5052562;28;20328;-89
2021/01/05 08:03:19;;;;;;;0.83;0.63;;;3.70;88.50;;;;;;5034455;28;20029;-85
2021/01/05 08:05:46;;;;;;;0.10;0.10;;;3.70;88.50;;;;;;5025070;28;20443;-85
2021/01/05 08:08:13;;;;;;;0.87;0.63;;;3.70;88.50;;;;;;5038122;28;20039;-86
2021/01/05 08:10:39;;;;;;;3.43;0.63;;;3.70;88.40;;;;;;5034864;28;20040;-85
2021/01/05 08:13:08;;;;;;;5.20;1.30;;;3.80;88.50;;;;;;5035560;28;20458;-87
2021/01/05 08:15:35;;;;;;;0.40;0.40;;;3.70;88.50;;;;;;5018863;28;20052;-85
2021/01/05 08:18:01;;;;;;;1.70;0.77;;;3.70;88.40;;;;;;5036108;28;20056;-89
2021/01/05 08:20:29;;;;;;;3.83;1.57;;;3.80;88.50;;;;;;5019375;28;20036;-88
2021/01/05 08:22:56;;;;;;;1.33;0.40;;;3.80;88.50;;;;;;5019133;28;20037;-88
2021/01/05 08:25:22;;;;;;;1.03;0.73;;;3.80;88.40;;;;;;5029168;28;20033;-86
2021/01/05 08:27:50;;;;;;;3.90;0.70;;;3.80;88.40;;;;;;5032052;28;20324;-86
2021/01/05 08:30:27;;;;;;;0.27;0.00;;;4.10;88.30;;;;;;5047581;28;20044;-88
2021/01/05 08:32:54;;;;;;;0.10;0.10;;;4.20;87.50;;;;;;5034312;28;20021;-85
2021/01/05 08:35:23;;;;;;;3.60;1.20;;;4.20;87.30;;;;;;5044004;28;20414;-84
2021/01/05 08:37:49;;;;;;;1.67;0.30;;;4.10;87.50;;;;;;5014777;28;20034;-85
2021/01/05 08:40:21;;;;;;;6.40;0.70;;;4.00;87.70;;;;;;5030542;28;20474;-84
2021/01/05 08:42:47;;;;;;;1.90;0.93;;;4.00;87.90;;;;;;5035104;28;20416;-85
2021/01/05 08:45:14;;;;;;;2.07;0.67;;;3.90;87.90;;;;;;5032185;28;20037;-84
2021/01/05 08:47:40;;;;;;;4.53;0.63;;;4.00;88.10;;;;;;5045619;28;20431;-84
2021/01/05 08:50:07;;;;;;;2.53;0.67;;;3.90;88.10;;;;;;5034560;28;20072;-86
2021/01/05 08:52:35;;;;;;;0.40;0.40;;;4.00;88.20;;;;;;5035544;28;20550;-84
2021/01/05 08:55:01;;;;;;;1.13;0.47;;;3.90;88.00;;;;;;5035104;28;20423;-83
2021/01/05 08:57:27;;;;;;;4.57;0.50;;;3.90;88.00;;;;;;5030866;28;20029;-83
2021/01/05 08:59:55;;;;;;;2.53;0.93;;;4.00;88.20;;;;;;5025211;28;20036;-84
2021/01/05 09:02:21;;;;;;;1.57;1.20;;;4.00;88.00;;;;;;5013457;28;20037;-85
2021/01/05 09:04:47;;;;;;;0.87;0.50;;;4.00;88.00;;;;;;5054223;28;20025;-84
2021/01/05 09:07:18;;;;;;;4.23;1.33;;;4.00;88.00;;;;;;5039068;28;20692;-84
2021/01/05 09:09:45;;;;;;;0.70;0.45;;;4.10;88.00;;;;;;5038185;28;20041;-84
2021/01/05 09:12:11;;;;;;;2.47;1.20;;;4.10;87.80;;;;;;5039414;28;20435;-85
2021/01/05 09:14:37;;;;;;;0.97;0.63;;;4.10;87.70;;;;;;5062359;28;20416;-84
2021/01/05 09:17:05;;;;;;;0.70;0.53;;;4.10;87.70;;;;;;5044792;28;20036;-83
2021/01/05 09:19:31;;;;;;;4.40;1.17;;;4.10;87.60;;;;;;5027896;28;20029;-83
2021/01/05 09:21:58;;;;;;;0.57;0.17;;;4.20;87.70;;;;;;5045720;28;20025;-83
2021/01/05 09:24:24;;;;;;;2.40;1.00;;;4.20;87.60;;;;;;5070687;28;20053;-86
2021/01/05 09:26:55;;;;;;;1.20;0.83;;;4.20;87.50;;;;;;5064894;28;20033;-85
2021/01/05 09:29:22;;;;;;;3.10;0.90;;;4.50;87.70;;;;;;5058816;28;20013;-83
2021/01/05 09:31:49;;;;;;;1.87;0.63;;;4.90;86.60;;;;;;5073549;28;20041;-86
2021/01/05 09:34:17;;;;;;;4.20;0.43;;;5.30;85.70;;;;;;5053566;28;20029;-83
2021/01/05 09:36:43;;;;;;;7.63;1.10;;;5.80;84.60;;;;;;5010943;28;20050;-84
2021/01/05 09:39:12;;;;;;;15.80;1.90;;;6.30;83.60;;;;;;5023363;28;20044;-84
2021/01/05 09:41:40;;;;;;;2.10;1.07;;;6.50;83.00;;;;;;5055709;28;20029;-83
2021/01/05 09:44:07;;;;;;;1.30;0.43;;;6.70;82.60;;;;;;5038205;28;20033;-83
2021/01/05 09:46:34;;;;;;;0.40;0.00;;;6.70;82.60;;;;;;5020033;28;20415;-83
2021/01/05 09:49:01;;;;;;;1.20;0.63;;;6.80;82.90;;;;;;5055439;28;20021;-86
2021/01/05 09:51:29;;;;;;;2.07;0.57;;;6.90;82.70;;;;;;5037865;28;20336;-85
2021/01/05 09:53:55;;;;;;;3.37;1.23;;;6.60;82.70;;;;;;5037443;28;20025;-85
2021/01/05 09:56:22;;;;;;;1.43;0.73;;;6.10;83.90;;;;;;5013517;28;20041;-86
2021/01/05 09:58:48;;;;;;;2.57;0.40;;;5.80;85.20;;;;;;5030997;28;20041;-85
2021/01/05 10:01:15;;;;;;;1.03;0.70;;;5.50;86.10;;;;;;5017213;28;20030;-85
2021/01/05 10:03:43;;;;;;;2.63;0.40;;;5.20;86.80;;;;;;5033768;28;20044;-86
2021/01/05 10:06:10;;;;;;;2.73;0.73;;;5.10;87.20;;;;;;5034347;28;20032;-85
2021/01/05 10:08:37;;;;;;;0.60;0.07;;;5.00;87.40;;;;;;5017330;28;20041;-84
2021/01/05 10:11:04;;;;;;;0.93;0.20;;;4.90;87.60;;;;;;5017688;28;20040;-83
2021/01/05 10:13:30;;;;;;;1.80;1.03;;;4.90;87.60;;;;;;5021100;28;20041;-84
2021/01/05 10:15:56;;;;;;;2.43;0.63;;;5.00;87.50;;;;;;5026695;28;20034;-85
2021/01/05 10:18:23;;;;;;;2.03;1.13;;;5.00;87.20;;;;;;5015634;28;20110;-85
2021/01/05 10:20:49;;;;;;;1.23;0.73;;;5.10;87.00;;;;;;5014044;28;20030;-86
2021/01/05 10:23:16;;;;;;;3.10;0.90;;;5.10;86.80;;;;;;5014227;28;20029;-88
2021/01/05 10:25:42;;;;;;;1.27;0.50;;;5.20;86.70;;;;;;5014206;28;20336;-87
2021/01/05 10:28:08;;;;;;;5.33;1.23;;;5.20;86.60;;;;;;5034111;28;20313;-85
2021/01/05 10:30:36;;;;;;;2.27;0.73;;;5.20;86.50;;;;;;5034572;28;20037;-85
2021/01/05 10:33:02;;;;;;;1.77;0.50;;;5.20;86.50;;;;;;5033082;28;20034;-85
2021/01/05 10:35:28;;;;;;;3.70;0.40;;;5.10;86.50;;;;;;5032153;28;20029;-85
2021/01/05 10:37:55;;;;;;;0.73;0.43;;;5.10;86.60;;;;;;5033845;28;20026;-85
2021/01/05 10:40:21;;;;;;;5.43;1.57;;;5.10;86.60;;;;;;5028899;28;20029;-87
2021/01/05 10:42:49;;;;;;;2.10;0.83;;;5.10;86.80;;;;;;5004110;28;20045;-87
2021/01/05 10:45:21;;;;;;;0.87;0.20;;;5.10;86.70;;;;;;5013016;28;20038;-86
2021/01/05 10:47:48;;;;;;;6.70;1.30;;;5.40;86.80;;;;;;5019412;28;20050;-86
2021/01/05 10:50:17;;;;;;;1.93;0.77;;;5.70;85.80;;;;;;5012210;28;20034;-87
2021/01/05 10:52:47;;;;;;;1.70;0.87;;;6.10;85.10;;;;;;5023913;28;20029;-87
2021/01/05 10:55:14;;;;;;;0.33;0.33;;;6.30;84.50;;;;;;5030999;28;20423;-86
2021/01/05 10:57:41;;;;;;;2.47;0.40;;;6.50;84.20;;;;;;5032057;28;20044;-85
2021/01/05 11:00:08;;;;;;;0.30;0.30;;;6.90;83.80;;;;;;5032757;28;20018;-87
2021/01/05 11:02:35;;;;;;;0.30;0.20;;;7.00;83.30;;;;;;5012942;28;20464;-86
2021/01/05 11:05:01;;;;;;;1.37;0.33;;;7.00;83.50;;;;;;5027689;28;20041;-86
2021/01/05 11:07:28;;;;;;;0.13;0.13;;;7.00;84.00;;;;;;5018686;28;20033;-84
2021/01/05 11:09:54;;;;;;;0.20;0.07;;;7.20;83.60;;;;;;5028502;28;20041;-87
2021/01/05 11:12:22;;;;;;;1.80;0.60;;;7.20;83.90;;;;;;5004230;28;20046;-87
2021/01/05 11:14:48;;;;;;;1.10;0.63;;;7.30;83.90;;;;;;5014866;28;20037;-87
2021/01/05 11:17:15;;;;;;;0.50;0.50;;;7.50;83.90;;;;;;5031136;28;20052;-88
2021/01/05 11:19:42;;;;;;;3.05;0.75;;;7.90;83.30;;;;;;5032108;28;20033;-87
2021/01/05 11:22:13;;;;;;;1.50;0.35;;;8.00;82.90;;;;;;5005828;28;20029;-86
2021/01/05 11:24:40;;;;;;;0.20;0.13;;;7.80;83.20;;;;;;5026957;28;20033;-85
2021/01/05 11:27:06;;;;;;;0.30;0.30;;;7.70;83.90;;;;;;5027918;28;20340;-86
2021/01/05 11:29:33;;;;;;;3.60;0.52;;;7.70;84.40;;;;;;5028645;28;20344;-86
2021/01/05 11:32:02;;;;;;;0.82;0.73;;;7.70;84.20;;;;;;5028036;28;20045;-86
2021/01/05 11:34:29;;;;;;;0.70;0.47;;;7.80;84.30;;;;;;4992411;28;20340;-85
2021/01/05 11:37:17;;;;;;;5.18;1.20;;;7.80;83.90;;;;;;5008243;28;20499;-85
2021/01/05 11:39:46;;;;;;;2.83;0.98;;;7.70;84.30;;;;;;5025690;28;20037;-86
2021/01/05 11:42:14;;;;;;;1.27;0.52;;;7.60;84.60;;;;;;5010841;28;20026;-88
2021/01/05 11:44:41;;;;;;;0.73;0.40;;;7.80;84.30;;;;;;5011755;28;20333;-87
2021/01/05 11:47:08;;;;;;;1.50;0.38;;;7.70;84.00;;;;;;5008139;28;20299;-88
2021/01/05 11:49:34;;;;;;;2.40;0.45;;;7.60;85.20;;;;;;5010959;28;20053;-87
2021/01/05 11:52:00;;;;;;;2.08;0.57;;;7.70;84.20;;;;;;5025157;28;20455;-85
2021/01/05 11:54:27;;;;;;;0.90;0.20;;;7.70;84.20;;;;;;5002813;28;20312;-85
2021/01/05 11:56:57;;;;;;;2.03;0.88;;;7.80;83.90;;;;;;5004809;28;20320;-87
2021/01/05 11:59:25;;;;;;;0.30;0.17;;;7.80;83.90;;;;;;5027342;28;20041;-89
2021/01/05 12:01:51;;;;;;;1.75;0.50;;;7.90;83.60;;;;;;5010423;28;20037;-86
2021/01/05 12:04:18;;;;;;;2.60;1.08;;;7.90;83.40;;;;;;5010549;28;20034;-86
2021/01/05 12:06:48;;;;;;;4.13;0.85;;;7.90;83.40;;;;;;5026476;28;20033;-88
2021/01/05 12:09:15;;;;;;;0.90;0.50;;;7.80;83.70;;;;;;5012546;28;20030;-89
2021/01/05 12:11:41;;;;;;;2.95;1.10;;;7.90;83.60;;;;;;5010899;28;20499;-89
2021/01/05 12:14:08;;;;;;;1.00;0.40;;;8.00;83.20;;;;;;5028893;28;20029;-90
2021/01/05 12:16:36;;;;;;;8.77;0.65;;;7.90;83.10;;;;;;5010902;28;20574;-88
2021/01/05 12:19:05;;;;;;;3.30;1.00;;;7.60;83.60;;;;;;4995161;28;20060;-93
2021/01/05 12:21:36;;;;;;;2.72;0.43;;;7.60;84.00;;;;;;5027700;28;20022;-89
2021/01/05 12:24:03;;;;;;;1.63;0.40;;;7.70;84.00;;;;;;5029816;28;20312;-89
2021/01/05 12:26:31;;;;;;;3.95;0.88;;;7.70;83.60;;;;;;4993917;28;20034;-91
2021/01/05 12:28:59;;;;;;;1.93;0.83;;;7.50;83.70;;;;;;5025857;28;20468;-88
2021/01/05 12:31:25;;;;;;;2.27;0.53;;;7.30;84.40;;;;;;5005849;28;20042;-88
2021/01/05 12:33:52;;;;;;;11.33;3.47;;;7.20;84.40;;;;;;5007273;28;20033;-88
2021/01/05 12:36:29;;;;;;;8.10;1.20;;;7.10;84.80;;;;;;5028073;28;20037;-88
2021/01/05 12:38:56;;;;;;;3.90;1.77;;;7.20;84.80;;;;;;5030037;28;20352;-87
2021/01/05 12:41:33;;;;;;;1.57;0.57;;;7.40;84.70;;;;;;5013647;28;20026;-86
2021/01/05 12:44:00;;;;;;;1.23;0.40;;;7.50;84.00;;;;;;5029538;28;20176;-87
2021/01/05 12:46:29;;;;;;;1.17;0.13;;;7.50;83.90;;;;;;5014957;28;20246;-87
2021/01/05 12:48:56;;;;;;;0.87;0.23;;;7.40;84.40;;;;;;5031896;28;20045;-89
2021/01/05 12:51:30;;;;;;;11.03;1.13;;;7.50;84.30;;;;;;5015694;28;20041;-86
2021/01/05 12:53:56;;;;;;;15.80;0.95;;;7.30;84.40;;;;;;5031518;28;20044;-87
2021/01/05 12:56:23;;;;;;;3.07;0.57;;;7.30;84.90;;;;;;5022911;28;20557;-85
2021/01/05 12:58:50;;;;;;;3.83;1.17;;;7.40;84.90;;;;;;5036745;28;20488;-87
2021/01/05 13:01:17;;;;;;;2.17;0.60;;;7.20;84.70;;;;;;4998129;28;20033;-85
2021/01/05 13:03:43;;;;;;;3.03;1.03;;;7.10;85.30;;;;;;5029900;28;20329;-88
2021/01/05 13:06:10;;;;;;;0.73;0.20;;;7.30;85.10;;;;;;5009653;28;20046;-88
2021/01/05 13:08:36;;;;;;;0.60;0.57;;;7.20;85.00;;;;;;5030829;28;20033;-88
2021/01/05 13:11:07;;;;;;;0.00;0.00;;;7.00;85.30;;;;;;5030559;28;20045;-84
2021/01/05 13:13:33;;;;;;;0.75;0.38;;;6.90;85.40;;;;;;5032563;28;20045;-86
2021/01/05 13:16:00;;;;;;;1.20;0.25;;;7.10;85.50;;;;;;5027374;28;20810;-86
2021/01/05 13:18:26;;;;;;;1.38;0.70;;;7.20;84.70;;;;;;5027698;28;20038;-85
2021/01/05 13:20:53;;;;;;;1.55;0.85;;;7.50;84.60;;;;;;5011196;28;20038;-86
2021/01/05 13:23:19;;;;;;;0.10;0.10;;;7.60;84.00;;;;;;5008286;28;20044;-87